Upstream stations:
Downstream station:
SHEF ID: SDFO2 Deep Fork River at Stroud
STATION TYPE:
PRECIP STAGE RIV-FLOW VOLTAGE BAT-LOAD
in ft cfs volt volt
Ccp-Rev Ccp-Rev Ccp-Rev Ccp-Rev Ccp-Rev
(US/Central)
03/31 00:00 0.00 13.22 326 12.65 12.57
03/31 01:00 0.00 13.22 326 12.65 12.57
03/31 02:00 0.00 13.22 326 12.65 12.57
03/31 03:00 0.00 13.23 330 12.65 12.57
03/31 04:00 0.00 13.22 326 12.65 12.49
03/31 05:00 0.00 13.22 326 12.65 12.49
03/31 06:00 0.00 13.21 323 12.65 12.49
03/31 07:00 0.00 13.21 323 12.65 12.49
03/31 08:00 0.00 13.22 326 12.65 12.49
03/31 09:00 0.00 13.22 326 12.65 12.57
03/31 10:00 0.00 13.22 326 12.73 12.57
03/31 11:00 0.00 13.21 323 ---- ----
03/31 12:00 0.00 13.22 326 12.89 12.73
03/31 13:00 0.00 13.22 326 12.89 12.81
03/31 14:00 0.00 13.22 326 13.37 13.13
03/31 15:00 0.00 13.21 323 13.92 13.44
03/31 16:00 0.00 13.20 319 14.16 13.44
03/31 17:00 0.00 13.20 319 14.00 13.29
03/31 18:00 0.00 13.21 323 13.29 13.13
03/31 19:00 0.00 13.21 323 13.05 12.97
03/31 20:00 0.00 13.20 319 12.97 12.89
03/31 21:00 0.00 13.19 316 12.97 12.81
03/31 22:00 0.00 13.19 316 12.89 12.81
03/31 23:00 ---- ---- ---- ---- ----